Time;durP1;ratioP1;P1;durP2;ratioP2;P2;SDS_P1;SDS_P2;PMS_P1;PMS_P2;Temp;Humidity;BMP_temperature;BMP_pressure;BME280_temperature;BME280_humidity;BME280_pressure;Samples;Min_cycle;Max_cycle;Signal;HPM_P1;HPM_P2
2022/12/26 00:01:27;;;;;;;0.10;0.10;;;7.80;99.90;;;;;;5051515;28;20169;-64
2022/12/26 00:03:54;;;;;;;0.00;0.00;;;7.80;99.90;;;;;;5051425;28;20209;-65
2022/12/26 00:06:22;;;;;;;0.00;0.00;;;7.80;99.90;;;;;;5050759;28;20203;-64
2022/12/26 00:08:48;;;;;;;0.00;0.00;;;7.90;99.90;;;;;;5052131;28;20232;-64
2022/12/26 00:11:14;;;;;;;0.70;0.47;;;7.90;99.90;;;;;;5052130;28;20181;-64
2022/12/26 00:13:40;;;;;;;0.08;0.08;;;8.00;99.90;;;;;;5051665;28;20490;-64
2022/12/26 00:16:11;;;;;;;0.00;0.00;;;8.00;99.90;;;;;;5049986;28;20211;-64
2022/12/26 00:18:38;;;;;;;0.00;0.00;;;8.00;99.90;;;;;;5050723;28;20178;-64
2022/12/26 00:21:04;;;;;;;0.00;0.00;;;8.00;99.90;;;;;;5051482;28;20264;-64
2022/12/26 00:23:34;;;;;;;0.00;0.00;;;8.00;99.90;;;;;;5051902;28;20177;-64
2022/12/26 00:26:08;;;;;;;0.10;0.10;;;8.00;99.90;;;;;;5051778;28;20178;-64
2022/12/26 00:28:34;;;;;;;0.10;0.10;;;8.00;99.90;;;;;;5032366;28;20189;-64
2022/12/26 00:31:04;;;;;;;0.00;0.00;;;8.00;99.90;;;;;;5042650;28;20230;-64
2022/12/26 00:33:30;;;;;;;0.10;0.10;;;7.90;99.90;;;;;;5051569;28;20173;-64
2022/12/26 00:36:01;;;;;;;0.00;0.00;;;7.90;99.90;;;;;;5051474;28;20595;-64
2022/12/26 00:38:27;;;;;;;0.00;0.00;;;7.90;99.90;;;;;;5051926;28;20726;-64
2022/12/26 00:40:52;;;;;;;0.08;0.08;;;7.90;99.90;;;;;;5051698;28;20260;-64
2022/12/26 00:43:18;;;;;;;0.00;0.00;;;7.90;99.90;;;;;;5051849;28;20223;-64
2022/12/26 00:45:44;;;;;;;0.00;0.00;;;7.80;99.90;;;;;;5050454;28;20197;-63
2022/12/26 00:48:10;;;;;;;0.00;0.00;;;7.80;99.90;;;;;;5051864;28;20629;-63
2022/12/26 00:50:35;;;;;;;0.17;0.17;;;7.80;99.90;;;;;;5050001;28;20196;-64
2022/12/26 00:53:01;;;;;;;0.00;0.00;;;7.80;99.90;;;;;;5051675;28;20181;-64
2022/12/26 00:55:26;;;;;;;0.00;0.00;;;7.70;99.90;;;;;;5051397;28;20209;-63
2022/12/26 00:57:52;;;;;;;0.00;0.00;;;7.70;99.90;;;;;;5051604;28;20261;-64
2022/12/26 01:00:17;;;;;;;0.00;0.00;;;7.70;99.90;;;;;;5051582;28;20177;-63
2022/12/26 01:02:43;;;;;;;0.00;0.00;;;7.70;99.90;;;;;;5052180;28;20655;-63
2022/12/26 01:05:10;;;;;;;0.00;0.00;;;7.70;99.90;;;;;;5055335;28;20231;-63
2022/12/26 01:07:37;;;;;;;0.00;0.00;;;7.70;99.90;;;;;;5053851;28;20714;-64
2022/12/26 01:10:04;;;;;;;0.20;0.20;;;7.70;99.90;;;;;;5055387;28;20189;-63
2022/12/26 01:12:30;;;;;;;2.20;0.52;;;7.60;99.90;;;;;;5053893;28;20279;-64
2022/12/26 01:14:57;;;;;;;0.00;0.00;;;7.60;99.90;;;;;;5055178;28;20672;-64
2022/12/26 01:17:24;;;;;;;1.00;1.00;;;7.60;99.90;;;;;;5055609;28;20231;-64
2022/12/26 01:19:50;;;;;;;0.05;0.05;;;7.50;99.90;;;;;;5053368;28;20219;-64
2022/12/26 01:22:15;;;;;;;0.00;0.00;;;7.60;99.90;;;;;;5054115;28;20204;-64
2022/12/26 01:24:41;;;;;;;0.10;0.10;;;7.60;99.90;;;;;;5054679;28;20668;-63
2022/12/26 01:27:07;;;;;;;0.00;0.00;;;7.60;99.90;;;;;;5054789;28;20181;-64
2022/12/26 01:29:32;;;;;;;0.00;0.00;;;7.60;99.90;;;;;;5054850;28;20212;-64
2022/12/26 01:31:58;;;;;;;0.10;0.10;;;7.60;99.90;;;;;;5054765;28;20178;-64
2022/12/26 01:34:23;;;;;;;0.00;0.00;;;7.60;99.90;;;;;;5054850;28;20208;-64
2022/12/26 01:36:51;;;;;;;0.00;0.00;;;7.70;99.90;;;;;;5054886;28;20184;-64
2022/12/26 01:39:17;;;;;;;0.03;0.03;;;7.60;99.90;;;;;;5054828;28;20227;-63
2022/12/26 01:41:42;;;;;;;0.13;0.13;;;7.70;99.90;;;;;;5055174;28;20182;-63
2022/12/26 01:44:45;;;;;;;0.17;0.17;;;7.70;99.90;;;;;;5054763;28;20275;-64
2022/12/26 01:47:11;;;;;;;0.90;0.35;;;7.70;99.90;;;;;;5054640;28;20712;-64
2022/12/26 01:49:42;;;;;;;0.00;0.00;;;7.70;99.90;;;;;;5053316;28;20182;-63
2022/12/26 01:52:14;;;;;;;0.00;0.00;;;7.70;99.90;;;;;;5054554;28;20215;-64
2022/12/26 01:54:44;;;;;;;0.00;0.00;;;7.70;99.90;;;;;;5054640;28;20224;-64
2022/12/26 01:57:20;;;;;;;0.00;0.00;;;7.80;99.90;;;;;;5054575;28;20185;-64
2022/12/26 01:59:49;;;;;;;0.00;0.00;;;7.80;99.90;;;;;;5053646;28;20177;-64
2022/12/26 02:02:16;;;;;;;0.10;0.10;;;7.80;99.90;;;;;;5054391;28;20550;-64
2022/12/26 02:07:34;;;;;;;0.35;0.35;;;7.80;99.90;;;;;;5054483;28;20179;-64
2022/12/26 02:09:59;;;;;;;0.10;0.10;;;7.80;99.90;;;;;;5054134;28;20189;-64
2022/12/26 02:12:31;;;;;;;0.00;0.00;;;7.90;99.90;;;;;;5040889;28;20681;-64
2022/12/26 02:14:57;;;;;;;0.00;0.00;;;8.00;99.90;;;;;;5051718;28;20308;-64
2022/12/26 02:17:25;;;;;;;0.00;0.00;;;8.00;99.90;;;;;;5053846;28;20261;-64
2022/12/26 02:20:15;;;;;;;0.00;0.00;;;8.00;99.90;;;;;;5054056;28;20256;-64
2022/12/26 02:23:13;;;;;;;0.10;0.10;;;8.10;99.90;;;;;;5054048;28;20252;-64
2022/12/26 02:25:41;;;;;;;0.00;0.00;;;8.10;99.90;;;;;;5053910;28;20199;-64
2022/12/26 02:28:26;;;;;;;0.00;0.00;;;8.10;99.90;;;;;;5042901;28;20181;-64
2022/12/26 02:31:12;;;;;;;0.00;0.00;;;8.20;99.90;;;;;;5053405;28;20174;-64
2022/12/26 02:33:37;;;;;;;0.22;0.22;;;8.20;99.90;;;;;;5053054;28;20680;-64
2022/12/26 02:36:27;;;;;;;0.00;0.00;;;8.10;99.90;;;;;;5052689;28;20217;-64
2022/12/26 02:39:05;;;;;;;0.00;0.00;;;8.10;99.90;;;;;;5052908;28;20181;-64
2022/12/26 02:41:55;;;;;;;0.00;0.00;;;8.10;99.90;;;;;;5053156;28;20185;-64
2022/12/26 02:47:19;;;;;;;0.10;0.10;;;8.00;99.90;;;;;;5053742;28;20228;-64
2022/12/26 03:13:35;;;;;;;0.10;0.10;;;7.90;99.90;;;;;;5052785;28;20235;-64
2022/12/26 03:18:55;;;;;;;0.00;0.00;;;7.90;99.90;;;;;;5052542;28;20180;-64
2022/12/26 03:21:26;;;;;;;0.00;0.00;;;8.00;99.90;;;;;;5040709;28;20294;-64
2022/12/26 03:23:53;;;;;;;0.25;0.25;;;8.00;99.90;;;;;;5052553;28;20645;-64
2022/12/26 03:26:40;;;;;;;0.00;0.00;;;8.00;99.90;;;;;;5050369;28;20272;-63
2022/12/26 03:32:06;;;;;;;0.00;0.00;;;8.20;99.90;;;;;;5052799;28;20188;-64
2022/12/26 03:34:36;;;;;;;0.00;0.00;;;8.40;99.90;;;;;;5052375;28;20260;-64
2022/12/26 03:37:20;;;;;;;0.05;0.05;;;8.50;99.90;;;;;;5052971;28;20615;-64
2022/12/26 04:21:05;;;;;;;0.00;0.00;;;8.70;99.90;;;;;;5049137;28;20184;-63
2022/12/26 04:46:33;;;;;;;0.40;0.30;;;9.00;99.90;;;;;;5051639;28;20190;-63
2022/12/26 04:51:45;;;;;;;0.00;0.00;;;9.00;99.90;;;;;;5052208;28;20180;-63
2022/12/26 04:54:11;;;;;;;0.00;0.00;;;9.00;99.90;;;;;;5047046;28;20205;-63
2022/12/26 04:56:36;;;;;;;1.20;0.90;;;9.00;99.90;;;;;;5051732;28;20239;-63
2022/12/26 04:59:02;;;;;;;0.15;0.15;;;9.00;99.90;;;;;;5051584;28;20177;-63
2022/12/26 05:09:48;;;;;;;0.00;0.00;;;9.00;99.90;;;;;;5050764;28;20553;-63
2022/12/26 05:12:13;;;;;;;0.00;0.00;;;9.00;99.90;;;;;;5051560;28;20217;-63
2022/12/26 05:14:39;;;;;;;0.20;0.20;;;9.00;99.90;;;;;;5051287;28;20213;-63
2022/12/26 05:31:00;;;;;;;0.00;0.00;;;9.20;99.90;;;;;;5051710;28;20668;-63
2022/12/26 05:36:10;;;;;;;0.00;0.00;;;9.30;99.90;;;;;;5050405;28;20259;-63
2022/12/26 05:38:36;;;;;;;0.00;0.00;;;9.30;99.90;;;;;;5051445;28;20182;-63
2022/12/26 05:41:02;;;;;;;0.00;0.00;;;9.30;99.90;;;;;;5050594;28;20642;-63
2022/12/26 05:43:28;;;;;;;0.00;0.00;;;9.40;99.90;;;;;;5051230;28;20209;-63
2022/12/26 05:45:53;;;;;;;0.10;0.10;;;9.40;99.90;;;;;;5051175;28;20397;-63
2022/12/26 05:48:19;;;;;;;0.00;0.00;;;9.40;99.90;;;;;;5050997;28;20239;-60
2022/12/26 05:50:45;;;;;;;0.00;0.00;;;9.50;99.90;;;;;;5054384;28;20279;-65
2022/12/26 05:53:10;;;;;;;0.00;0.00;;;9.50;99.90;;;;;;5054868;28;20276;-65
2022/12/26 05:55:36;;;;;;;0.00;0.00;;;9.60;99.90;;;;;;5054254;28;20672;-64
2022/12/26 05:58:01;;;;;;;0.00;0.00;;;9.60;99.90;;;;;;5054555;28;20231;-65
2022/12/26 06:00:28;;;;;;;0.00;0.00;;;9.60;99.90;;;;;;5054811;28;20687;-64
2022/12/26 06:02:54;;;;;;;0.08;0.08;;;9.70;99.90;;;;;;5053263;28;20224;-65
2022/12/26 06:05:20;;;;;;;0.00;0.00;;;9.70;99.90;;;;;;5054222;28;20216;-65
2022/12/26 06:07:46;;;;;;;0.08;0.08;;;9.80;99.90;;;;;;5053209;28;20188;-64
2022/12/26 06:10:12;;;;;;;0.00;0.00;;;9.90;99.90;;;;;;5053611;28;20203;-65
2022/12/26 06:12:37;;;;;;;0.40;0.40;;;9.90;99.90;;;;;;5054024;28;20213;-64
2022/12/26 06:15:03;;;;;;;0.30;0.30;;;9.90;99.90;;;;;;5053875;28;20308;-65
2022/12/26 06:17:29;;;;;;;1.33;1.30;;;10.00;99.90;;;;;;5054250;28;20174;-65
2022/12/26 06:19:54;;;;;;;0.57;0.57;;;10.00;99.90;;;;;;5053533;28;20636;-65
2022/12/26 06:22:20;;;;;;;0.22;0.22;;;10.00;99.90;;;;;;5054214;28;20581;-65
2022/12/26 06:24:45;;;;;;;0.47;0.47;;;10.00;99.90;;;;;;5053969;28;20207;-64
2022/12/26 06:27:11;;;;;;;0.05;0.05;;;10.00;99.90;;;;;;5053859;28;20204;-64
2022/12/26 06:29:36;;;;;;;0.63;0.55;;;10.00;99.90;;;;;;5054347;28;20177;-64
2022/12/26 06:32:03;;;;;;;1.77;1.35;;;10.00;99.90;;;;;;5053859;28;20173;-64
2022/12/26 06:34:29;;;;;;;0.10;0.10;;;10.00;99.90;;;;;;5053801;28;20300;-65
2022/12/26 06:36:54;;;;;;;0.00;0.00;;;10.00;99.90;;;;;;5053848;28;20617;-65
2022/12/26 06:39:20;;;;;;;0.10;0.10;;;10.00;99.90;;;;;;5053982;28;20169;-65
2022/12/26 06:41:46;;;;;;;0.60;0.60;;;10.00;99.90;;;;;;5053512;28;20702;-65
2022/12/26 06:44:12;;;;;;;0.00;0.00;;;10.10;99.90;;;;;;5054039;28;20185;-65
2022/12/26 06:46:37;;;;;;;0.13;0.13;;;10.10;99.90;;;;;;5053901;28;20656;-65
2022/12/26 06:49:05;;;;;;;0.00;0.00;;;10.10;99.90;;;;;;5053471;28;20189;-66
2022/12/26 06:51:31;;;;;;;0.08;0.08;;;10.10;99.90;;;;;;5053800;28;20249;-65
2022/12/26 06:54:01;;;;;;;0.00;0.00;;;10.10;99.90;;;;;;5053148;28;20209;-65
2022/12/26 06:56:27;;;;;;;2.63;0.10;;;10.10;99.90;;;;;;5053316;28;20629;-64
2022/12/26 06:59:01;;;;;;;0.00;0.00;;;10.20;99.90;;;;;;5052051;28;20532;-65
2022/12/26 07:01:29;;;;;;;0.00;0.00;;;10.20;99.90;;;;;;5052732;28;20193;-65
2022/12/26 07:03:55;;;;;;;0.00;0.00;;;10.30;99.90;;;;;;5052989;28;20694;-65
2022/12/26 07:06:28;;;;;;;0.00;0.00;;;10.40;99.90;;;;;;5053642;28;20256;-65
2022/12/26 07:08:57;;;;;;;0.00;0.00;;;10.50;99.90;;;;;;5053212;28;20755;-65
2022/12/26 07:11:27;;;;;;;0.00;0.00;;;10.60;99.90;;;;;;5052553;28;20629;-64
2022/12/26 07:13:54;;;;;;;0.00;0.00;;;10.80;99.90;;;;;;5053004;28;20176;-65
2022/12/26 07:16:19;;;;;;;0.00;0.00;;;10.90;99.90;;;;;;5049290;28;20189;-64
2022/12/26 07:18:45;;;;;;;0.00;0.00;;;11.00;99.90;;;;;;5054402;28;20405;-65
2022/12/26 07:21:12;;;;;;;0.00;0.00;;;11.10;99.90;;;;;;5052443;28;20181;-65
2022/12/26 07:23:39;;;;;;;0.00;0.00;;;11.20;99.90;;;;;;5052458;28;20214;-64
2022/12/26 07:26:05;;;;;;;0.00;0.00;;;11.20;99.90;;;;;;5052795;28;20183;-65
2022/12/26 07:28:31;;;;;;;0.00;0.00;;;11.20;99.90;;;;;;5052824;28;20188;-65
2022/12/26 07:30:58;;;;;;;0.00;0.00;;;11.20;99.90;;;;;;5052513;28;20185;-65
2022/12/26 07:33:24;;;;;;;0.00;0.00;;;11.20;99.90;;;;;;5053034;28;20173;-65
2022/12/26 07:35:49;;;;;;;0.00;0.00;;;11.20;99.90;;;;;;5051325;28;20220;-66
2022/12/26 07:38:15;;;;;;;0.00;0.00;;;11.20;99.90;;;;;;5052606;28;20205;-65
2022/12/26 07:40:40;;;;;;;0.00;0.00;;;11.20;99.90;;;;;;5052806;28;20217;-65
2022/12/26 07:43:06;;;;;;;0.00;0.00;;;11.20;99.90;;;;;;5052845;28;20199;-65
2022/12/26 07:45:32;;;;;;;0.00;0.00;;;11.20;99.90;;;;;;5052688;28;20180;-66
2022/12/26 07:47:58;;;;;;;0.00;0.00;;;11.20;99.90;;;;;;5052701;28;20260;-68
2022/12/26 07:50:25;;;;;;;0.00;0.00;;;11.20;99.90;;;;;;5051517;28;20192;-65
2022/12/26 07:52:50;;;;;;;0.00;0.00;;;11.20;99.90;;;;;;5052435;28;20181;-65
2022/12/26 07:55:17;;;;;;;0.00;0.00;;;11.20;99.90;;;;;;5052602;28;20272;-64
2022/12/26 07:57:42;;;;;;;0.00;0.00;;;11.20;99.90;;;;;;5052269;28;20534;-65
2022/12/26 08:00:09;;;;;;;0.00;0.00;;;11.20;99.90;;;;;;5052720;28;20177;-64
2022/12/26 08:02:34;;;;;;;0.00;0.00;;;11.20;99.90;;;;;;5052363;28;20185;-65
2022/12/26 08:05:00;;;;;;;0.00;0.00;;;11.20;99.90;;;;;;5052451;28;20223;-65
2022/12/26 08:07:25;;;;;;;0.00;0.00;;;11.20;99.90;;;;;;5052261;28;20264;-62
2022/12/26 08:09:51;;;;;;;0.00;0.00;;;11.20;99.90;;;;;;5052042;28;20181;-63
2022/12/26 08:12:20;;;;;;;0.00;0.00;;;11.20;99.90;;;;;;5051758;28;20801;-60
2022/12/26 08:14:46;;;;;;;0.00;0.00;;;11.10;99.90;;;;;;5051990;28;20221;-62
2022/12/26 08:17:12;;;;;;;0.15;0.15;;;11.10;99.90;;;;;;5051982;28;20174;-60
2022/12/26 08:19:38;;;;;;;0.00;0.00;;;11.00;99.90;;;;;;5052122;28;20726;-60
2022/12/26 08:22:03;;;;;;;0.00;0.00;;;11.00;99.90;;;;;;5051815;28;20227;-60
2022/12/26 08:24:29;;;;;;;0.00;0.00;;;11.00;99.90;;;;;;5051978;28;20177;-61
2022/12/26 08:26:54;;;;;;;0.00;0.00;;;11.00;99.90;;;;;;5052025;28;20312;-61
2022/12/26 08:29:20;;;;;;;0.00;0.00;;;10.90;99.90;;;;;;5051983;28;20248;-59
2022/12/26 08:31:45;;;;;;;0.00;0.00;;;10.90;99.90;;;;;;5052140;28;20192;-60
2022/12/26 08:34:12;;;;;;;0.00;0.00;;;10.90;99.90;;;;;;5051978;28;20197;-61
2022/12/26 08:36:38;;;;;;;0.00;0.00;;;10.80;99.90;;;;;;5052045;28;20269;-59
2022/12/26 08:39:03;;;;;;;0.00;0.00;;;10.80;99.90;;;;;;5051819;28;20256;-61
2022/12/26 08:41:29;;;;;;;0.00;0.00;;;10.80;99.90;;;;;;5050692;28;20652;-60
2022/12/26 08:43:54;;;;;;;0.82;0.80;;;10.80;99.90;;;;;;5051568;28;20269;-60
2022/12/26 08:46:21;;;;;;;0.00;0.00;;;10.70;99.90;;;;;;5051972;28;20191;-61
2022/12/26 08:48:47;;;;;;;0.10;0.10;;;10.70;99.90;;;;;;5051992;28;20180;-61
2022/12/26 08:51:24;;;;;;;0.00;0.00;;;10.70;99.90;;;;;;5052160;28;20396;-61
2022/12/26 08:53:51;;;;;;;0.00;0.00;;;10.60;99.90;;;;;;5053012;28;20263;-62
2022/12/26 08:56:21;;;;;;;0.00;0.00;;;10.60;99.90;;;;;;5062846;28;20265;-62
2022/12/26 08:58:47;;;;;;;0.10;0.10;;;10.60;99.90;;;;;;5051896;28;20219;-62
2022/12/26 09:01:17;;;;;;;0.00;0.00;;;10.60;99.90;;;;;;5051722;28;20185;-61
2022/12/26 09:03:43;;;;;;;0.00;0.00;;;10.60;99.90;;;;;;5051821;28;20180;-61
2022/12/26 09:06:10;;;;;;;0.00;0.00;;;10.60;99.90;;;;;;5051717;28;20170;-61
2022/12/26 09:08:37;;;;;;;0.00;0.00;;;10.50;99.90;;;;;;5051834;28;20231;-61
2022/12/26 09:11:12;;;;;;;0.00;0.00;;;10.60;99.90;;;;;;5051508;28;20711;-62
2022/12/26 09:13:39;;;;;;;0.08;0.08;;;10.50;99.90;;;;;;5051545;28;20193;-62
2022/12/26 09:16:10;;;;;;;0.00;0.00;;;10.60;99.90;;;;;;5051467;28;20295;-63
2022/12/26 09:18:36;;;;;;;0.00;0.00;;;10.60;99.90;;;;;;5051760;28;20182;-62
2022/12/26 09:21:04;;;;;;;0.00;0.00;;;10.60;99.90;;;;;;5051593;28;20181;-62
2022/12/26 09:23:30;;;;;;;0.00;0.00;;;10.60;99.90;;;;;;5050976;28;20185;-62
2022/12/26 09:26:02;;;;;;;0.00;0.00;;;10.60;99.90;;;;;;5055308;28;20181;-62
2022/12/26 09:28:27;;;;;;;0.00;0.00;;;10.60;99.90;;;;;;5055447;28;20189;-62
2022/12/26 09:30:53;;;;;;;0.00;0.00;;;10.60;99.90;;;;;;5055378;28;20178;-62
2022/12/26 09:33:18;;;;;;;0.00;0.00;;;10.60;99.90;;;;;;5055383;28;20216;-62
2022/12/26 09:35:44;;;;;;;0.00;0.00;;;10.60;99.90;;;;;;5055187;28;20275;-63
2022/12/26 09:38:09;;;;;;;0.00;0.00;;;10.60;99.90;;;;;;5055156;28;20209;-62
2022/12/26 09:41:18;;;;;;;0.00;0.00;;;10.60;99.90;;;;;;5054948;28;20199;-62
2022/12/26 09:44:04;;;;;;;0.00;0.00;;;10.60;99.90;;;;;;5052342;28;20711;-61
2022/12/26 09:46:35;;;;;;;0.00;0.00;;;10.50;99.90;;;;;;5054642;28;20542;-62
2022/12/26 09:49:31;;;;;;;0.00;0.00;;;10.50;99.90;;;;;;5054418;28;20173;-62
2022/12/26 09:52:04;;;;;;;0.00;0.00;;;10.50;99.90;;;;;;5054351;28;20678;-62
2022/12/26 09:54:40;;;;;;;0.10;0.10;;;10.50;99.90;;;;;;5054122;28;20214;-59
2022/12/26 09:57:13;;;;;;;0.00;0.00;;;10.50;99.90;;;;;;5054167;28;20177;-59
2022/12/26 10:00:00;;;;;;;0.00;0.00;;;10.40;99.90;;;;;;5054796;28;20182;-59
2022/12/26 10:02:26;;;;;;;0.00;0.00;;;10.40;99.90;;;;;;5054295;28;20539;-59
2022/12/26 10:04:53;;;;;;;0.00;0.00;;;10.40;99.90;;;;;;5054822;28;20185;-59
2022/12/26 10:07:47;;;;;;;0.10;0.10;;;10.40;99.90;;;;;;5054207;28;20177;-58
2022/12/26 10:10:18;;;;;;;0.00;0.00;;;10.40;99.90;;;;;;5054397;28;20276;-58
2022/12/26 10:12:57;;;;;;;0.00;0.00;;;10.40;99.90;;;;;;5054278;28;20221;-58
2022/12/26 10:16:01;;;;;;;0.00;0.00;;;10.30;99.90;;;;;;5053724;28;20267;-58
2022/12/26 10:18:38;;;;;;;0.00;0.00;;;10.30;99.90;;;;;;5034644;28;20197;-58
2022/12/26 10:21:20;;;;;;;0.00;0.00;;;10.30;99.90;;;;;;5042195;28;20539;-58
2022/12/26 10:24:00;;;;;;;0.00;0.00;;;10.30;99.90;;;;;;5053257;28;20641;-58
2022/12/26 10:26:32;;;;;;;0.00;0.00;;;10.30;99.90;;;;;;5053735;28;20189;-58
2022/12/26 10:29:20;;;;;;;0.00;0.00;;;10.30;99.90;;;;;;5054054;28;20190;-58
2022/12/26 10:31:52;;;;;;;0.00;0.00;;;10.30;99.90;;;;;;5041903;28;20200;-58
2022/12/26 10:34:35;;;;;;;0.00;0.00;;;10.30;99.90;;;;;;5053615;28;20213;-58
2022/12/26 10:37:38;;;;;;;0.00;0.00;;;10.40;99.90;;;;;;5052820;28;20181;-58
2022/12/26 10:40:06;;;;;;;0.00;0.00;;;10.40;99.90;;;;;;5053317;28;20185;-58
2022/12/26 10:42:38;;;;;;;0.00;0.00;;;10.40;99.90;;;;;;5053413;28;20181;-59
2022/12/26 10:45:15;;;;;;;0.00;0.00;;;10.40;99.90;;;;;;5053212;28;20591;-58
2022/12/26 10:47:43;;;;;;;0.10;0.10;;;10.30;99.90;;;;;;5053801;28;20181;-58
2022/12/26 10:50:22;;;;;;;0.00;0.00;;;10.40;99.90;;;;;;5053660;28;20377;-58
2022/12/26 10:52:48;;;;;;;0.00;0.00;;;10.40;99.90;;;;;;5053244;28;20181;-61
2022/12/26 10:55:16;;;;;;;0.00;0.00;;;10.40;99.90;;;;;;5053063;28;20209;-59
2022/12/26 10:57:46;;;;;;;0.00;0.00;;;10.40;99.90;;;;;;5053560;28;20293;-59
2022/12/26 11:00:26;;;;;;;0.20;0.10;;;10.50;99.90;;;;;;5053097;28;20196;-59
2022/12/26 11:03:16;;;;;;;0.00;0.00;;;10.50;99.90;;;;;;5052344;28;20671;-60
2022/12/26 11:05:49;;;;;;;0.00;0.00;;;10.50;99.90;;;;;;5053235;28;20196;-60
2022/12/26 11:08:19;;;;;;;0.00;0.00;;;10.60;99.90;;;;;;5053567;28;20209;-64
2022/12/26 11:11:03;;;;;;;0.00;0.00;;;10.60;99.90;;;;;;5053416;28;20182;-64
2022/12/26 11:13:31;;;;;;;0.00;0.00;;;10.60;99.90;;;;;;5053076;28;20250;-64
2022/12/26 11:15:56;;;;;;;0.10;0.10;;;10.60;99.90;;;;;;5051722;28;20706;-65
2022/12/26 11:18:46;;;;;;;0.00;0.00;;;10.70;99.90;;;;;;5053170;28;20272;-63
2022/12/26 11:21:18;;;;;;;0.00;0.00;;;10.80;99.90;;;;;;5053078;28;20177;-62
2022/12/26 11:23:46;;;;;;;0.00;0.00;;;11.00;99.90;;;;;;5051870;28;20268;-62
2022/12/26 11:26:26;;;;;;;0.00;0.00;;;11.20;99.90;;;;;;5052851;28;20185;-62
2022/12/26 11:29:09;;;;;;;0.00;0.00;;;11.30;99.90;;;;;;5052747;28;20239;-62
2022/12/26 11:31:35;;;;;;;0.00;0.00;;;11.20;99.90;;;;;;5054152;28;20239;-62
2022/12/26 11:34:08;;;;;;;0.00;0.00;;;11.20;99.90;;;;;;5052616;28;20181;-62
2022/12/26 11:36:36;;;;;;;0.00;0.00;;;11.20;99.90;;;;;;5052697;28;20197;-62
2022/12/26 11:39:18;;;;;;;0.00;0.00;;;11.20;99.90;;;;;;5052545;28;20200;-62
2022/12/26 11:41:47;;;;;;;0.00;0.00;;;11.30;99.90;;;;;;5052801;28;20227;-62
2022/12/26 11:44:15;;;;;;;0.20;0.20;;;11.30;99.90;;;;;;5052723;28;20185;-63
2022/12/26 11:47:11;;;;;;;0.00;0.00;;;11.20;99.90;;;;;;5051989;28;20192;-62
2022/12/26 11:49:57;;;;;;;0.00;0.00;;;11.20;99.90;;;;;;5062619;28;20647;-62
2022/12/26 11:52:51;;;;;;;0.00;0.00;;;11.20;99.90;;;;;;5057134;28;20520;-62
2022/12/26 11:55:23;;;;;;;0.00;0.00;;;11.10;99.90;;;;;;5052377;28;20632;-61
2022/12/26 11:58:09;;;;;;;0.00;0.00;;;11.00;99.90;;;;;;5052299;28;20182;-62
2022/12/26 12:01:04;;;;;;;0.00;0.00;;;11.00;99.90;;;;;;5031899;28;20198;-62
2022/12/26 12:03:36;;;;;;;0.00;0.00;;;11.00;99.90;;;;;;5040472;28;20185;-62
2022/12/26 12:06:13;;;;;;;0.00;0.00;;;11.00;99.90;;;;;;5052093;28;20462;-62
2022/12/26 12:09:12;;;;;;;0.00;0.00;;;11.00;99.90;;;;;;5051993;28;20181;-64
2022/12/26 12:12:22;;;;;;;0.13;0.13;;;11.00;99.90;;;;;;5052034;28;20761;-63
2022/12/26 12:14:53;;;;;;;0.00;0.00;;;10.90;99.90;;;;;;5035194;28;20275;-62
2022/12/26 12:17:40;;;;;;;0.10;0.10;;;10.90;99.90;;;;;;5051893;28;20269;-63
2022/12/26 12:20:32;;;;;;;0.00;0.00;;;10.90;99.90;;;;;;5052036;28;20307;-62
2022/12/26 12:23:07;;;;;;;0.00;0.00;;;10.90;99.90;;;;;;5034055;28;20208;-62
2022/12/26 12:25:59;;;;;;;0.00;0.00;;;10.90;99.90;;;;;;5051997;28;20173;-62
2022/12/26 12:28:46;;;;;;;0.00;0.00;;;10.90;99.90;;;;;;5051842;28;20178;-61
2022/12/26 12:31:42;;;;;;;0.00;0.00;;;10.90;99.90;;;;;;5045616;28;20178;-62
2022/12/26 12:34:43;;;;;;;0.00;0.00;;;10.90;99.90;;;;;;5031812;28;20197;-62
2022/12/26 12:37:17;;;;;;;0.00;0.00;;;10.90;99.90;;;;;;5050675;28;20195;-62
2022/12/26 12:40:33;;;;;;;0.00;0.00;;;10.90;99.90;;;;;;5051959;28;20165;-62
2022/12/26 12:43:04;;;;;;;0.00;0.00;;;10.90;99.90;;;;;;5031031;28;20209;-62
2022/12/26 12:45:42;;;;;;;0.00;0.00;;;10.90;99.90;;;;;;5050556;28;20188;-62
2022/12/26 12:48:43;;;;;;;0.00;0.00;;;10.90;99.90;;;;;;5051091;28;21639;-62
2022/12/26 12:51:26;;;;;;;0.08;0.08;;;11.00;99.90;;;;;;5023024;28;20186;-62
2022/12/26 12:54:01;;;;;;;0.00;0.00;;;11.00;99.90;;;;;;5043339;28;20212;-62
2022/12/26 12:56:43;;;;;;;0.00;0.00;;;11.00;99.90;;;;;;5050750;28;20185;-62
2022/12/26 12:59:21;;;;;;;0.00;0.00;;;11.00;99.90;;;;;;5042438;28;20169;-62
2022/12/26 13:01:52;;;;;;;0.00;0.00;;;11.00;99.90;;;;;;5055404;28;20675;-62
2022/12/26 13:04:51;;;;;;;0.00;0.00;;;11.00;99.90;;;;;;5053672;28;20205;-62
2022/12/26 13:07:25;;;;;;;0.00;0.00;;;11.00;99.90;;;;;;5055046;28;20272;-62
2022/12/26 13:09:56;;;;;;;0.00;0.00;;;11.00;99.90;;;;;;5055101;28;20584;-62
2022/12/26 13:12:42;;;;;;;0.03;0.03;;;11.00;99.90;;;;;;5054641;28;20643;-63
2022/12/26 13:15:33;;;;;;;0.10;0.10;;;10.90;99.90;;;;;;5054405;28;20588;-62
2022/12/26 13:18:16;;;;;;;0.00;0.00;;;10.90;99.90;;;;;;5054596;28;20184;-62
2022/12/26 13:20:53;;;;;;;0.00;0.00;;;10.90;99.90;;;;;;5054948;28;20177;-62
2022/12/26 13:26:29;;;;;;;0.00;0.00;;;10.80;99.90;;;;;;5055481;28;20674;-62
2022/12/26 13:29:04;;;;;;;0.00;0.00;;;10.80;99.90;;;;;;5054519;28;20663;-62
2022/12/26 13:31:38;;;;;;;0.00;0.00;;;10.80;99.90;;;;;;5035299;28;20224;-62
2022/12/26 13:34:09;;;;;;;0.00;0.00;;;10.90;99.90;;;;;;5050882;28;20268;-62
2022/12/26 13:36:55;;;;;;;0.00;0.00;;;10.80;99.90;;;;;;5055174;28;20247;-62
2022/12/26 13:39:26;;;;;;;0.00;0.00;;;10.90;99.90;;;;;;5054375;28;20177;-62
2022/12/26 13:44:40;;;;;;;0.00;0.00;;;11.00;99.90;;;;;;5054987;28;20223;-62
2022/12/26 13:47:38;;;;;;;0.00;0.00;;;11.00;99.90;;;;;;5053833;28;20633;-62
2022/12/26 13:50:42;;;;;;;0.00;0.00;;;11.00;99.90;;;;;;5053655;28;20170;-62
2022/12/26 13:53:39;;;;;;;0.00;0.00;;;11.00;99.90;;;;;;5048313;28;20193;-61
2022/12/26 13:56:16;;;;;;;0.00;0.00;;;11.00;99.90;;;;;;5053447;28;20221;-62
2022/12/26 13:58:52;;;;;;;0.00;0.00;;;11.00;99.90;;;;;;5054076;28;20602;-61
2022/12/26 14:01:45;;;;;;;0.00;0.00;;;11.00;99.90;;;;;;5052726;28;20329;-62
2022/12/26 14:04:16;;;;;;;0.00;0.00;;;11.00;99.90;;;;;;5046707;28;20177;-61
2022/12/26 14:07:06;;;;;;;0.00;0.00;;;11.00;99.90;;;;;;5054656;28;20185;-61
2022/12/26 14:10:08;;;;;;;0.00;0.00;;;11.00;99.90;;;;;;5053776;28;20178;-62
2022/12/26 14:12:45;;;;;;;0.13;0.13;;;11.00;99.90;;;;;;5054557;28;20225;-62
2022/12/26 14:15:34;;;;;;;0.00;0.00;;;11.00;99.90;;;;;;5054173;28;20236;-61
2022/12/26 14:18:07;;;;;;;0.00;0.00;;;11.10;99.90;;;;;;5034405;28;20255;-62
2022/12/26 14:20:45;;;;;;;0.00;0.00;;;11.10;99.90;;;;;;5054040;28;20533;-62
2022/12/26 14:23:42;;;;;;;0.00;0.00;;;11.10;99.90;;;;;;5053658;28;20169;-60
2022/12/26 14:26:17;;;;;;;0.00;0.00;;;11.00;99.90;;;;;;5053042;28;20898;-63
2022/12/26 14:28:58;;;;;;;0.00;0.00;;;11.00;99.90;;;;;;5052893;28;20185;-63
2022/12/26 14:31:40;;;;;;;0.00;0.00;;;11.00;99.90;;;;;;5053948;28;20184;-63
2022/12/26 14:34:33;;;;;;;0.00;0.00;;;11.00;99.90;;;;;;5053970;28;20627;-63
2022/12/26 14:37:04;;;;;;;0.10;0.10;;;11.00;99.90;;;;;;5054234;28;20227;-62
2022/12/26 14:39:48;;;;;;;0.00;0.00;;;11.00;99.90;;;;;;5054170;28;20528;-62
2022/12/26 14:45:31;;;;;;;0.00;0.00;;;11.00;99.90;;;;;;5054089;28;20188;-63
2022/12/26 14:47:57;;;;;;;0.00;0.00;;;11.00;99.90;;;;;;5053276;28;20204;-63
2022/12/26 14:50:50;;;;;;;0.00;0.00;;;11.00;99.90;;;;;;5054002;28;20567;-63
2022/12/26 14:53:27;;;;;;;0.00;0.00;;;10.90;99.90;;;;;;5052608;28;20193;-63
2022/12/26 14:56:12;;;;;;;0.10;0.10;;;10.90;99.90;;;;;;5033813;28;20220;-62
2022/12/26 14:58:45;;;;;;;0.00;0.00;;;10.90;99.90;;;;;;5034001;28;20261;-63
2022/12/26 15:01:17;;;;;;;0.00;0.00;;;10.90;99.90;;;;;;5033852;28;20189;-63
2022/12/26 15:04:24;;;;;;;0.00;0.00;;;10.90;99.90;;;;;;5033635;28;20174;-64
2022/12/26 15:07:36;;;;;;;0.00;0.00;;;10.90;99.90;;;;;;5033414;28;20265;-63
2022/12/26 15:10:34;;;;;;;0.00;0.00;;;10.90;99.90;;;;;;5032321;28;20201;-63
2022/12/26 15:13:30;;;;;;;0.00;0.00;;;10.90;99.90;;;;;;5033465;28;20300;-63
2022/12/26 15:16:14;;;;;;;0.00;0.00;;;10.80;99.90;;;;;;5033726;28;20217;-63
2022/12/26 15:18:50;;;;;;;0.30;0.08;;;10.80;99.90;;;;;;5033626;28;20174;-63
2022/12/26 15:21:41;;;;;;;0.00;0.00;;;10.80;99.90;;;;;;5032990;28;20178;-64
2022/12/26 15:24:51;;;;;;;0.00;0.00;;;10.70;99.90;;;;;;5033269;28;20247;-63
2022/12/26 15:27:45;;;;;;;0.00;0.00;;;10.60;99.90;;;;;;5033284;28;20212;-63
2022/12/26 15:30:19;;;;;;;0.03;0.03;;;10.60;99.90;;;;;;5032145;28;20323;-63
2022/12/26 15:32:50;;;;;;;0.00;0.00;;;10.60;99.90;;;;;;5033322;28;20250;-63
2022/12/26 15:35:28;;;;;;;0.00;0.00;;;10.50;99.90;;;;;;5033098;28;20206;-63
2022/12/26 15:38:17;;;;;;;0.00;0.00;;;10.50;99.90;;;;;;5033213;28;20197;-63
2022/12/26 15:40:51;;;;;;;0.00;0.00;;;10.50;99.90;;;;;;5033106;28;20192;-63